Time,TemperatureF,DewpointF,PressureIn,WindDirection,WindDirectionDegrees,WindSpeedMPH,WindSpeedGustMPH,Humidity,HourlyPrecipIn,Conditions,Clouds,dailyrainin,SoftwareType,DateUTC
2013-03-16 00:03:00,61.0,-99.9,30.21,NNE,17,4.0,6.0,-999,-99.99,,,-99.99,,2013-03-16 04:03:00,
2013-03-16 00:13:00,60.0,-99.9,30.21,NNE,21,4.0,6.0,-999,-99.99,,,-99.99,,2013-03-16 04:13:00,
2013-03-16 00:23:00,60.0,-99.9,30.21,NNE,13,4.0,6.0,-999,-99.99,,,-99.99,,2013-03-16 04:23:00,
2013-03-16 00:33:00,60.0,-99.9,30.21,North,10,4.0,5.0,-999,-99.99,,,-99.99,,2013-03-16 04:33:00,
2013-03-16 00:43:00,60.0,-99.9,30.21,NNE,18,5.0,7.0,-999,-99.99,,,-99.99,,2013-03-16 04:43:00,
2013-03-16 00:53:00,60.0,-99.9,30.21,North,10,5.0,7.0,-999,-99.99,,,-99.99,,2013-03-16 04:53:00,
2013-03-16 01:03:00,59.0,-99.9,30.21,North,9,5.0,6.0,-999,-99.99,,,-99.99,,2013-03-16 05:03:00,
2013-03-16 01:12:00,59.0,-99.9,30.21,NNE,13,4.0,6.0,-999,-99.99,,,-99.99,,2013-03-16 05:12:00,
2013-03-16 01:22:00,59.0,-99.9,30.21,NNE,15,3.0,5.0,-999,-99.99,,,-99.99,,2013-03-16 05:22:00,
2013-03-16 01:32:00,58.0,-99.9,30.21,NNE,24,2.0,3.0,-999,-99.99,,,-99.99,,2013-03-16 05:32:00,
2013-03-16 01:42:00,58.0,-99.9,30.21,NNE,26,3.0,4.0,-999,-99.99,,,-99.99,,2013-03-16 05:42:00,
2013-03-16 01:53:00,58.0,-99.9,30.20,NE,39,2.0,4.0,-999,-99.99,,,-99.99,,2013-03-16 05:53:00,
2013-03-16 02:02:00,58.0,-99.9,30.20,NE,53,4.0,5.0,-999,-99.99,,,-99.99,,2013-03-16 06:02:00,
2013-03-16 02:12:00,58.0,-99.9,30.20,NE,52,4.0,6.0,-999,-99.99,,,-99.99,,2013-03-16 06:12:00,
2013-03-16 02:22:00,58.0,-99.9,30.20,ENE,63,3.0,6.0,-999,-99.99,,,-99.99,,2013-03-16 06:22:00,
2013-03-16 02:32:00,58.0,-99.9,30.20,ENE,71,5.0,7.0,-999,-99.99,,,-99.99,,2013-03-16 06:32:00,
2013-03-16 02:42:00,57.0,-99.9,30.19,ENE,70,5.0,6.0,-999,-99.99,,,-99.99,,2013-03-16 06:42:00,
2013-03-16 02:52:00,57.0,-99.9,30.19,ENE,73,6.0,8.0,-999,-99.99,,,-99.99,,2013-03-16 06:52:00,
2013-03-16 03:02:00,56.0,-99.9,30.19,ENE,70,5.0,7.0,-999,-99.99,,,-99.99,,2013-03-16 07:02:00,
2013-03-16 03:12:00,56.0,-99.9,30.19,ENE,73,6.0,7.0,-999,-99.99,,,-99.99,,2013-03-16 07:12:00,
2013-03-16 03:22:00,56.0,-99.9,30.19,ENE,78,4.0,6.0,-999,-99.99,,,-99.99,,2013-03-16 07:22:00,
2013-03-16 03:32:00,55.0,-99.9,30.18,East,88,4.0,8.0,-999,-99.99,,,-99.99,,2013-03-16 07:32:00,
2013-03-16 03:42:00,55.0,-99.9,30.18,East,82,4.0,6.0,-999,-99.99,,,-99.99,,2013-03-16 07:42:00,
2013-03-16 03:53:00,55.0,-99.9,30.18,East,86,4.0,6.0,-999,-99.99,,,-99.99,,2013-03-16 07:53:00,
2013-03-16 04:03:00,55.0,-99.9,30.18,East,89,4.0,6.0,-999,-99.99,,,-99.99,,2013-03-16 08:03:00,
2013-03-16 04:12:00,55.0,-99.9,30.18,East,88,4.0,7.0,-999,-99.99,,,-99.99,,2013-03-16 08:12:00,
2013-03-16 04:23:00,55.0,-99.9,30.17,East,86,5.0,7.0,-999,-99.99,,,-99.99,,2013-03-16 08:23:00,
2013-03-16 04:33:00,55.0,-99.9,30.17,East,88,5.0,7.0,-999,-99.99,,,-99.99,,2013-03-16 08:33:00,
2013-03-16 04:43:00,55.0,-99.9,30.17,East,91,4.0,6.0,-999,-99.99,,,-99.99,,2013-03-16 08:43:00,
2013-03-16 04:52:00,55.0,-99.9,30.17,East,95,5.0,7.0,-999,-99.99,,,-99.99,,2013-03-16 08:52:00,
2013-03-16 05:02:00,55.0,-99.9,30.17,East,99,5.0,8.0,-999,-99.99,,,-99.99,,2013-03-16 09:02:00,
2013-03-16 05:12:00,55.0,-99.9,30.17,East,96,4.0,7.0,-999,-99.99,,,-99.99,,2013-03-16 09:12:00,
2013-03-16 05:22:00,55.0,-99.9,30.17,East,98,5.0,8.0,-999,-99.99,,,-99.99,,2013-03-16 09:22:00,
2013-03-16 05:33:00,55.0,-99.9,30.17,East,98,5.0,7.0,-999,-99.99,,,-99.99,,2013-03-16 09:33:00,
2013-03-16 05:43:00,55.0,-99.9,30.17,ESE,112,5.0,7.0,-999,-99.99,,,-99.99,,2013-03-16 09:43:00,
2013-03-16 05:53:00,55.0,-99.9,30.17,East,101,6.0,7.0,-999,-99.99,,,-99.99,,2013-03-16 09:53:00,
2013-03-16 06:03:00,55.0,-99.9,30.17,ESE,107,4.0,7.0,-999,-99.99,,,-99.99,,2013-03-16 10:03:00,
2013-03-16 06:12:00,55.0,-99.9,30.17,East,101,5.0,7.0,-999,-99.99,,,-99.99,,2013-03-16 10:12:00,
2013-03-16 06:23:00,55.0,-99.9,30.17,ESE,114,5.0,7.0,-999,-99.99,,,-99.99,,2013-03-16 10:23:00,
2013-03-16 06:32:00,55.0,-99.9,30.17,ESE,111,4.0,7.0,-999,-99.99,,,-99.99,,2013-03-16 10:32:00,
2013-03-16 06:42:00,54.0,-99.9,30.17,ESE,111,6.0,8.0,-999,-99.99,,,-99.99,,2013-03-16 10:42:00,
2013-03-16 06:53:00,54.0,-99.9,30.17,ESE,113,6.0,8.0,-999,-99.99,,,-99.99,,2013-03-16 10:53:00,
2013-03-16 07:03:00,54.0,-99.9,30.18,ESE,108,5.0,7.0,-999,-99.99,,,-99.99,,2013-03-16 11:03:00,
2013-03-16 07:12:00,54.0,-99.9,30.18,ESE,103,5.0,7.0,-999,-99.99,,,-99.99,,2013-03-16 11:12:00,
2013-03-16 07:22:00,54.0,-99.9,30.18,East,101,5.0,6.0,-999,-99.99,,,-99.99,,2013-03-16 11:22:00,
2013-03-16 07:33:00,54.0,-99.9,30.19,ESE,102,6.0,7.0,-999,-99.99,,,-99.99,,2013-03-16 11:33:00,
2013-03-16 07:43:00,54.0,-99.9,30.19,ESE,111,6.0,8.0,-999,-99.99,,,-99.99,,2013-03-16 11:43:00,
2013-03-16 07:53:00,54.0,-99.9,30.19,ESE,113,6.0,7.0,-999,-99.99,,,-99.99,,2013-03-16 11:53:00,
2013-03-16 08:02:00,55.0,-99.9,30.19,ESE,116,6.0,8.0,-999,-99.99,,,-99.99,,2013-03-16 12:02:00,
2013-03-16 08:12:00,55.0,-99.9,30.19,ESE,111,6.0,8.0,-999,-99.99,,,-99.99,,2013-03-16 12:12:00,
2013-03-16 08:23:00,56.0,-99.9,30.19,ESE,116,5.0,8.0,-999,-99.99,,,-99.99,,2013-03-16 12:23:00,
2013-03-16 08:32:00,56.0,-99.9,30.20,ESE,117,6.0,8.0,-999,-99.99,,,-99.99,,2013-03-16 12:32:00,
2013-03-16 08:43:00,56.0,-99.9,30.20,ESE,111,6.0,7.0,-999,-99.99,,,-99.99,,2013-03-16 12:43:00,
2013-03-16 08:53:00,57.0,-99.9,30.21,ESE,109,6.0,7.0,-999,-99.99,,,-99.99,,2013-03-16 12:53:00,
2013-03-16 09:02:00,58.0,-99.9,30.21,ESE,105,5.0,7.0,-999,-99.99,,,-99.99,,2013-03-16 13:02:00,
2013-03-16 09:12:00,58.0,-99.9,30.21,ESE,102,5.0,8.0,-999,-99.99,,,-99.99,,2013-03-16 13:12:00,
2013-03-16 09:23:00,59.0,-99.9,30.21,ESE,106,5.0,7.0,-999,-99.99,,,-99.99,,2013-03-16 13:23:00,
2013-03-16 09:32:00,60.0,-99.9,30.21,SE,125,6.0,9.0,-999,-99.99,,,-99.99,,2013-03-16 13:32:00,
2013-03-16 09:43:00,61.0,-99.9,30.21,SE,133,6.0,9.0,-999,-99.99,,,-99.99,,2013-03-16 13:43:00,
2013-03-16 09:53:00,62.0,-99.9,30.21,SE,140,5.0,9.0,-999,-99.99,,,-99.99,,2013-03-16 13:53:00,
2013-03-16 10:03:00,63.0,-99.9,30.21,SSE,149,6.0,8.0,-999,-99.99,,,-99.99,,2013-03-16 14:03:00,
2013-03-16 10:12:00,64.0,-99.9,30.21,SSE,151,7.0,10.0,-999,-99.99,,,-99.99,,2013-03-16 14:12:00,
2013-03-16 10:22:00,65.0,-99.9,30.21,SE,141,8.0,11.0,-999,-99.99,,,-99.99,,2013-03-16 14:22:00,
2013-03-16 10:32:00,65.0,-99.9,30.21,SE,135,6.0,10.0,-999,-99.99,,,-99.99,,2013-03-16 14:32:00,
2013-03-16 10:42:00,66.0,-99.9,30.21,SE,143,6.0,9.0,-999,-99.99,,,-99.99,,2013-03-16 14:42:00,
2013-03-16 10:53:00,66.0,-99.9,30.21,SE,145,7.0,10.0,-999,-99.99,,,-99.99,,2013-03-16 14:53:00,
2013-03-16 11:03:00,67.0,-99.9,30.21,SSE,151,5.0,9.0,-999,-99.99,,,-99.99,,2013-03-16 15:03:00,
2013-03-16 11:13:00,67.0,-99.9,30.21,SSE,168,7.0,13.0,-999,-99.99,,,-99.99,,2013-03-16 15:13:00,
2013-03-16 11:23:00,68.0,-99.9,30.21,SSW,208,3.0,9.0,-999,-99.99,,,-99.99,,2013-03-16 15:23:00,
2013-03-16 11:33:00,68.0,-99.9,30.21,SW,219,4.0,10.0,-999,-99.99,,,-99.99,,2013-03-16 15:33:00,
2013-03-16 11:44:00,68.0,-99.9,30.21,South,180,2.0,5.0,-999,-99.99,,,-99.99,,2013-03-16 15:44:00,
2013-03-16 11:53:00,68.0,-99.9,30.21,South,189,3.0,4.0,-999,-99.99,,,-99.99,,2013-03-16 15:53:00,
2013-03-16 12:03:00,68.0,-99.9,30.21,SSW,195,2.0,4.0,-999,-99.99,,,-99.99,,2013-03-16 16:03:00,
2013-03-16 12:13:00,68.0,-99.9,30.20,South,186,2.0,5.0,-999,-99.99,,,-99.99,,2013-03-16 16:13:00,
2013-03-16 12:23:00,68.0,-99.9,30.20,SSW,203,3.0,6.0,-999,-99.99,,,-99.99,,2013-03-16 16:23:00,
2013-03-16 12:33:00,68.0,-99.9,30.20,SSW,201,3.0,7.0,-999,-99.99,,,-99.99,,2013-03-16 16:33:00,
2013-03-16 12:43:00,68.0,-99.9,30.20,South,181,2.0,7.0,-999,-99.99,,,-99.99,,2013-03-16 16:43:00,
2013-03-16 12:53:00,68.0,-99.9,30.20,South,186,2.0,6.0,-999,-99.99,,,-99.99,,2013-03-16 16:53:00,
2013-03-16 13:03:00,68.0,-99.9,30.20,South,186,3.0,5.0,-999,-99.99,,,-99.99,,2013-03-16 17:03:00,
2013-03-16 13:13:00,68.0,-99.9,30.19,South,178,2.0,6.0,-999,-99.99,,,-99.99,,2013-03-16 17:13:00,
2013-03-16 13:23:00,68.0,-99.9,30.19,SSW,198,3.0,6.0,-999,-99.99,,,-99.99,,2013-03-16 17:23:00,
2013-03-16 13:33:00,68.0,-99.9,30.19,SSW,197,4.0,6.0,-999,-99.99,,,-99.99,,2013-03-16 17:33:00,
2013-03-16 13:43:00,68.0,-99.9,30.18,SSW,192,3.0,6.0,-999,-99.99,,,-99.99,,2013-03-16 17:43:00,
2013-03-16 13:53:00,68.0,-99.9,30.18,SSW,197,3.0,6.0,-999,-99.99,,,-99.99,,2013-03-16 17:53:00,
2013-03-16 14:03:00,68.0,-99.9,30.17,SSW,205,4.0,7.0,-999,-99.99,,,-99.99,,2013-03-16 18:03:00,
2013-03-16 14:13:00,68.0,-99.9,30.17,SSW,197,3.0,7.0,-999,-99.99,,,-99.99,,2013-03-16 18:13:00,
2013-03-16 14:23:00,68.0,-99.9,30.17,SSW,211,3.0,7.0,-999,-99.99,,,-99.99,,2013-03-16 18:23:00,
2013-03-16 14:33:00,68.0,-99.9,30.16,SW,215,5.0,9.0,-999,-99.99,,,-99.99,,2013-03-16 18:33:00,
2013-03-16 14:43:00,68.0,-99.9,30.16,SSW,198,4.0,10.0,-999,-99.99,,,-99.99,,2013-03-16 18:43:00,
2013-03-16 14:53:00,68.0,-99.9,30.15,SSW,209,4.0,9.0,-999,-99.99,,,-99.99,,2013-03-16 18:53:00,
2013-03-16 15:02:00,68.0,-99.9,30.15,SSW,211,5.0,10.0,-999,-99.99,,,-99.99,,2013-03-16 19:02:00,
2013-03-16 15:12:00,68.0,-99.9,30.14,SW,221,7.0,11.0,-999,-99.99,,,-99.99,,2013-03-16 19:12:00,
2013-03-16 15:23:00,68.0,-99.9,30.14,SW,223,8.0,14.0,-999,-99.99,,,-99.99,,2013-03-16 19:23:00,
2013-03-16 15:33:00,68.0,-99.9,30.14,SW,224,10.0,15.0,-999,-99.99,,,-99.99,,2013-03-16 19:33:00,
2013-03-16 15:42:00,68.0,-99.9,30.13,SW,220,6.0,15.0,-999,-99.99,,,-99.99,,2013-03-16 19:42:00,
2013-03-16 15:53:00,67.0,-99.9,30.13,SW,228,12.0,15.0,-999,-99.99,,,-99.99,,2013-03-16 19:53:00,
2013-03-16 16:03:00,67.0,-99.9,30.13,SW,233,13.0,15.0,-999,-99.99,,,-99.99,,2013-03-16 20:03:00,
2013-03-16 16:13:00,67.0,-99.9,30.12,SW,235,13.0,15.0,-999,-99.99,,,-99.99,,2013-03-16 20:13:00,
2013-03-16 16:22:00,67.0,-99.9,30.12,SW,236,12.0,14.0,-999,-99.99,,,-99.99,,2013-03-16 20:22:00,
2013-03-16 16:33:00,67.0,-99.9,30.12,WSW,237,13.0,15.0,-999,-99.99,,,-99.99,,2013-03-16 20:33:00,
2013-03-16 16:43:00,68.0,-99.9,30.12,WSW,238,13.0,15.0,-999,-99.99,,,-99.99,,2013-03-16 20:43:00,
2013-03-16 16:53:00,68.0,-99.9,30.12,WSW,237,13.0,15.0,-999,-99.99,,,-99.99,,2013-03-16 20:53:00,
2013-03-16 17:02:00,68.0,-99.9,30.12,SW,236,12.0,15.0,-999,-99.99,,,-99.99,,2013-03-16 21:02:00,
2013-03-16 17:12:00,68.0,-99.9,30.11,WSW,238,12.0,14.0,-999,-99.99,,,-99.99,,2013-03-16 21:12:00,
2013-03-16 17:23:00,68.0,-99.9,30.11,WSW,238,11.0,13.0,-999,-99.99,,,-99.99,,2013-03-16 21:23:00,
2013-03-16 17:33:00,68.0,-99.9,30.11,WSW,246,9.0,11.0,-999,-99.99,,,-99.99,,2013-03-16 21:33:00,
2013-03-16 17:43:00,68.0,-99.9,30.11,WSW,247,8.0,10.0,-999,-99.99,,,-99.99,,2013-03-16 21:43:00,
2013-03-16 17:53:00,68.0,-99.9,30.11,WSW,240,8.0,9.0,-999,-99.99,,,-99.99,,2013-03-16 21:53:00,
2013-03-16 18:03:00,68.0,-99.9,30.11,WSW,243,6.0,8.0,-999,-99.99,,,-99.99,,2013-03-16 22:03:00,
2013-03-16 18:13:00,68.0,-99.9,30.11,WSW,240,6.0,7.0,-999,-99.99,,,-99.99,,2013-03-16 22:13:00,
2013-03-16 18:23:00,68.0,-99.9,30.11,WSW,243,6.0,6.0,-999,-99.99,,,-99.99,,2013-03-16 22:23:00,
2013-03-16 18:33:00,68.0,-99.9,30.12,WSW,241,6.0,6.0,-999,-99.99,,,-99.99,,2013-03-16 22:33:00,
2013-03-16 18:43:00,68.0,-99.9,30.12,WSW,248,5.0,6.0,-999,-99.99,,,-99.99,,2013-03-16 22:43:00,
2013-03-16 18:53:00,68.0,-99.9,30.12,WSW,248,4.0,5.0,-999,-99.99,,,-99.99,,2013-03-16 22:53:00,
2013-03-16 19:03:00,68.0,-99.9,30.12,WSW,244,3.0,4.0,-999,-99.99,,,-99.99,,2013-03-16 23:03:00,
2013-03-16 19:13:00,67.0,-99.9,30.12,WSW,253,3.0,3.0,-999,-99.99,,,-99.99,,2013-03-16 23:13:00,
2013-03-16 19:23:00,68.0,-99.9,30.12,WSW,252,3.0,3.0,-999,-99.99,,,-99.99,,2013-03-16 23:23:00,
2013-03-16 19:33:00,68.0,-99.9,30.12,West,261,2.0,2.0,-999,-99.99,,,-99.99,,2013-03-16 23:33:00,
2013-03-16 19:43:00,68.0,-99.9,30.12,West,260,2.0,2.0,-999,-99.99,,,-99.99,,2013-03-16 23:43:00,
2013-03-16 19:53:00,67.0,-99.9,30.12,WNW,282,1.0,2.0,-999,-99.99,,,-99.99,,2013-03-16 23:53:00,
2013-03-16 20:02:00,67.0,-99.9,30.12,WNW,296,1.0,1.0,-999,-99.99,,,-99.99,,2013-03-17 00:02:00,
2013-03-16 20:13:00,67.0,-99.9,30.12,West,270,1.0,2.0,-999,-99.99,,,-99.99,,2013-03-17 00:13:00,
2013-03-16 20:23:00,66.0,-99.9,30.12,WSW,256,1.0,2.0,-999,-99.99,,,-99.99,,2013-03-17 00:23:00,
2013-03-16 20:33:00,66.0,-99.9,30.12,WNW,286,0.0,1.0,-999,-99.99,,,-99.99,,2013-03-17 00:33:00,
2013-03-16 20:43:00,66.0,-99.9,30.12,WNW,289,1.0,1.0,-999,-99.99,,,-99.99,,2013-03-17 00:43:00,
2013-03-16 20:53:00,66.0,-99.9,30.12,NW,309,1.0,1.0,-999,-99.99,,,-99.99,,2013-03-17 00:53:00,
2013-03-16 21:03:00,65.0,-99.9,30.12,NNE,12,1.0,1.0,-999,-99.99,,,-99.99,,2013-03-17 01:03:00,
2013-03-16 21:13:00,65.0,-99.9,30.12,NNE,17,2.0,2.0,-999,-99.99,,,-99.99,,2013-03-17 01:13:00,
2013-03-16 21:23:00,65.0,-99.9,30.12,NE,34,1.0,2.0,-999,-99.99,,,-99.99,,2013-03-17 01:23:00,
2013-03-16 21:33:00,65.0,-99.9,30.13,ENE,62,1.0,2.0,-999,-99.99,,,-99.99,,2013-03-17 01:33:00,
2013-03-16 21:43:00,66.0,-99.9,30.13,NE,41,2.0,2.0,-999,-99.99,,,-99.99,,2013-03-17 01:43:00,
2013-03-16 21:53:00,66.0,-99.9,30.13,NE,55,2.0,2.0,-999,-99.99,,,-99.99,,2013-03-17 01:53:00,
2013-03-16 22:03:00,66.0,-99.9,30.14,NE,43,2.0,2.0,-999,-99.99,,,-99.99,,2013-03-17 02:03:00,
2013-03-16 22:13:00,65.0,-99.9,30.14,ENE,67,3.0,3.0,-999,-99.99,,,-99.99,,2013-03-17 02:13:00,
2013-03-16 22:23:00,65.0,-99.9,30.15,ENE,78,4.0,4.0,-999,-99.99,,,-99.99,,2013-03-17 02:23:00,
2013-03-16 22:33:00,65.0,-99.9,30.15,East,88,4.0,5.0,-999,-99.99,,,-99.99,,2013-03-17 02:33:00,
2013-03-16 22:43:00,65.0,-99.9,30.15,East,84,3.0,5.0,-999,-99.99,,,-99.99,,2013-03-17 02:43:00,
2013-03-16 22:53:00,64.0,-99.9,30.15,East,89,3.0,4.0,-999,-99.99,,,-99.99,,2013-03-17 02:53:00,
2013-03-16 23:03:00,64.0,-99.9,30.16,East,88,4.0,4.0,-999,-99.99,,,-99.99,,2013-03-17 03:03:00,
2013-03-16 23:12:00,64.0,-99.9,30.16,East,91,4.0,4.0,-999,-99.99,,,-99.99,,2013-03-17 03:12:00,
2013-03-16 23:23:00,64.0,-99.9,30.16,East,99,4.0,4.0,-999,-99.99,,,-99.99,,2013-03-17 03:23:00,
2013-03-16 23:34:00,64.0,-99.9,30.15,East,100,3.0,4.0,-999,-99.99,,,-99.99,,2013-03-17 03:34:00,
2013-03-16 23:43:00,65.0,-99.9,30.16,East,93,3.0,4.0,-999,-99.99,,,-99.99,,2013-03-17 03:43:00,
2013-03-16 23:53:00,65.0,-99.9,30.16,East,94,3.0,4.0,-999,-99.99,,,-99.99,,2013-03-17 03:53:00,